createdAt,value
2023-05-12T00:21:04.152Z,12.26
2023-05-12T00:27:52.270Z,12.15
2023-05-12T00:49:44.126Z,12.08
2023-05-12T00:56:01.608Z,12.26
2023-05-12T00:58:51.137Z,12.30
2023-05-12T01:05:15.240Z,12.28
2023-05-12T01:11:54.271Z,12.33
2023-05-12T01:18:10.334Z,12.44
2023-05-12T01:21:30.171Z,12.43
2023-05-12T01:28:00.172Z,12.43
2023-05-12T01:30:31.067Z,12.40
2023-05-12T01:33:28.147Z,12.37
2023-05-12T01:36:16.418Z,12.38
2023-05-12T02:42:26.623Z,12.34
2023-05-12T03:25:05.758Z,12.67
2023-05-12T03:27:58.346Z,12.72
2023-05-12T03:31:00.062Z,12.72
2023-05-12T03:33:32.508Z,12.79
2023-05-12T03:46:24.491Z,12.81
2023-05-12T03:48:57.786Z,12.81
2023-05-12T03:51:33.815Z,12.83
2023-05-12T03:54:12.143Z,12.86
2023-05-12T03:56:44.341Z,12.90
2023-05-12T03:59:25.891Z,12.90
2023-05-12T04:02:02.225Z,12.95
2023-05-12T04:30:20.154Z,12.82
2023-05-12T05:55:07.963Z,14.14
2023-05-12T05:57:39.553Z,14.17
2023-05-12T06:00:12.933Z,14.22
2023-05-12T06:02:46.359Z,14.23
2023-05-12T06:05:20.557Z,14.26
2023-05-12T06:07:50.779Z,14.24
2023-05-12T06:10:31.655Z,14.24
2023-05-12T06:13:01.683Z,14.32
2023-05-12T06:15:35.532Z,14.34
2023-05-12T06:18:09.715Z,14.32
2023-05-12T06:20:41.970Z,14.32
2023-05-12T06:23:12.596Z,14.39
2023-05-12T06:25:50.434Z,14.38
2023-05-12T06:28:32.456Z,14.40
2023-05-12T06:31:10.076Z,14.50
2023-05-12T06:33:45.695Z,14.57
2023-05-12T06:36:15.532Z,14.60
2023-05-12T06:38:45.327Z,14.67
2023-05-12T06:41:20.122Z,14.67
2023-05-12T06:43:49.928Z,14.71
2023-05-12T06:46:19.740Z,14.68
2023-05-12T06:48:49.849Z,14.72
2023-05-12T06:51:19.689Z,14.73
2023-05-12T06:53:49.598Z,14.78
2023-05-12T06:56:23.438Z,14.78
2023-05-12T06:58:53.274Z,14.78
2023-05-12T07:01:23.126Z,14.73
2023-05-12T07:03:52.998Z,14.76
2023-05-12T07:06:23.288Z,14.86
2023-05-12T07:08:53.346Z,14.99
2023-05-12T07:11:27.086Z,15.05
2023-05-12T07:13:57.283Z,15.12
2023-05-12T07:16:27.499Z,15.18
2023-05-12T07:18:57.723Z,15.23
2023-05-12T07:21:28.829Z,15.27
2023-05-12T07:23:59.473Z,15.31
2023-05-12T07:26:32.203Z,15.39
2023-05-12T07:29:04.232Z,15.40
2023-05-12T07:31:34.246Z,15.40
2023-05-12T07:34:04.475Z,15.40
2023-05-12T07:36:34.590Z,15.35
2023-05-12T07:39:04.437Z,15.25
2023-05-12T07:41:36.939Z,15.22
2023-05-12T07:44:06.760Z,15.20
2023-05-12T07:46:36.728Z,15.19
2023-05-12T07:49:07.508Z,15.14
2023-05-12T07:51:37.540Z,15.15
2023-05-12T07:54:10.124Z,15.14
2023-05-12T07:56:46.284Z,15.23
2023-05-12T07:59:16.166Z,15.23
2023-05-12T08:01:46.129Z,15.19
2023-05-12T08:04:16.304Z,15.28
2023-05-12T08:06:46.188Z,15.38
2023-05-12T08:09:16.045Z,15.42
2023-05-12T08:11:51.591Z,15.36
2023-05-12T08:14:22.815Z,15.41
2023-05-12T08:16:52.739Z,15.42
2023-05-12T08:19:23.458Z,15.50
2023-05-12T08:21:53.879Z,15.51
2023-05-12T08:24:23.712Z,15.55
2023-05-12T08:26:56.130Z,15.68
2023-05-12T08:29:25.977Z,15.85
2023-05-12T08:31:55.891Z,15.97
2023-05-12T08:34:25.746Z,16.00
2023-05-12T08:36:55.800Z,16.15
2023-05-12T08:39:25.672Z,16.36
2023-05-12T08:42:11.239Z,16.47
2023-05-12T08:44:41.474Z,16.62
2023-05-12T08:47:15.050Z,16.73
2023-05-12T08:49:49.382Z,16.84
2023-05-12T08:52:24.706Z,16.98
2023-05-12T08:55:01.017Z,17.16
2023-05-12T08:57:47.421Z,17.16
2023-05-12T09:51:55.830Z,19.28
2023-05-12T09:58:22.581Z,19.31
2023-05-12T10:16:12.384Z,19.71
2023-05-12T10:18:45.827Z,19.79
2023-05-12T10:21:24.317Z,19.77
2023-05-12T10:24:04.159Z,19.76
2023-05-12T10:26:36.204Z,19.86
2023-05-12T10:29:10.331Z,20.01
2023-05-12T10:31:44.498Z,20.08
2023-05-12T10:34:21.781Z,20.12
2023-05-12T10:36:56.690Z,20.06
2023-05-12T10:39:32.761Z,20.12
2023-05-12T10:42:13.994Z,20.17
2023-05-12T10:44:54.643Z,20.21
2023-05-12T10:47:39.101Z,20.24
2023-05-12T10:50:13.915Z,20.30
2023-05-12T10:52:45.426Z,20.18
2023-05-12T10:55:19.606Z,20.16
2023-05-12T10:57:55.940Z,20.26
2023-05-12T11:00:31.354Z,20.37
2023-05-12T11:03:17.095Z,20.39
2023-05-12T11:06:01.446Z,20.56
2023-05-12T11:08:40.366Z,20.60
2023-05-12T11:11:11.059Z,20.63
2023-05-12T11:13:42.647Z,20.47
2023-05-12T11:16:15.387Z,20.48
2023-05-12T11:18:48.900Z,20.44
2023-05-12T11:21:18.928Z,20.44
2023-05-12T11:23:56.542Z,20.43
2023-05-12T11:26:26.360Z,20.47
2023-05-12T11:28:56.366Z,20.45
2023-05-12T11:31:26.279Z,20.41
2023-05-12T11:34:13.665Z,20.49
2023-05-12T11:36:45.553Z,20.49
2023-05-12T11:39:21.016Z,20.59
2023-05-12T11:41:59.272Z,20.57
2023-05-12T11:44:35.670Z,20.52
2023-05-12T11:47:06.668Z,20.52
2023-05-12T11:49:49.097Z,20.55
2023-05-12T11:52:19.698Z,20.57
2023-05-12T11:54:54.697Z,20.61
2023-05-12T11:57:29.545Z,20.63
2023-05-12T12:00:00.970Z,20.74
2023-05-12T12:02:31.024Z,20.56
2023-05-12T12:05:03.721Z,20.51
2023-05-12T12:07:34.658Z,20.46
2023-05-12T12:10:14.987Z,20.55
2023-05-12T12:12:45.278Z,20.61
2023-05-12T12:15:15.807Z,20.49
2023-05-12T12:17:45.650Z,20.35
2023-05-12T12:20:18.999Z,20.35
2023-05-12T12:22:48.823Z,20.36
2023-05-12T12:25:19.887Z,20.41
2023-05-12T12:27:50.020Z,20.57
2023-05-12T12:30:20.061Z,20.53
2023-05-12T12:32:49.984Z,20.62
2023-05-12T12:35:23.389Z,20.80
2023-05-12T12:37:54.058Z,20.85
2023-05-12T12:40:23.942Z,20.79
2023-05-12T12:42:53.749Z,20.66
2023-05-12T12:45:23.879Z,20.61
2023-05-12T12:47:55.200Z,20.63
2023-05-12T12:50:27.872Z,20.69
2023-05-12T12:52:57.661Z,20.65
2023-05-12T12:55:27.620Z,20.75
2023-05-12T12:57:58.190Z,20.90
2023-05-12T13:00:28.648Z,20.89
2023-05-12T13:02:59.506Z,20.83
2023-05-12T13:05:31.988Z,20.78
2023-05-12T13:08:01.849Z,20.48
2023-05-12T13:10:31.781Z,20.31
2023-05-12T13:13:01.656Z,20.25
2023-05-12T13:15:34.813Z,20.15
2023-05-12T13:18:04.641Z,20.20
2023-05-12T13:20:37.216Z,20.18
2023-05-12T13:23:07.201Z,20.12
2023-05-12T13:25:37.034Z,20.13
2023-05-12T13:28:06.889Z,20.07
2023-05-12T13:30:36.841Z,20.10
2023-05-12T13:33:07.059Z,20.11
2023-05-12T13:35:39.822Z,20.11
2023-05-12T13:38:11.047Z,20.08
2023-05-12T13:40:41.792Z,20.13
2023-05-12T13:43:12.561Z,20.18
2023-05-12T13:45:43.161Z,20.16
2023-05-12T13:48:13.078Z,20.11
2023-05-12T13:50:45.628Z,20.15
2023-05-12T13:53:15.522Z,20.24
2023-05-12T13:55:45.715Z,20.17
2023-05-12T13:58:15.537Z,20.13
2023-05-12T14:00:45.415Z,20.04
2023-05-12T14:03:15.291Z,19.98
2023-05-12T14:05:47.715Z,19.95
2023-05-12T14:08:17.601Z,19.85
2023-05-12T14:10:47.460Z,19.85
2023-05-12T14:13:17.500Z,19.86
2023-05-12T14:15:51.480Z,19.79
2023-05-12T14:18:21.708Z,19.84
2023-05-12T14:20:54.561Z,20.06
2023-05-12T14:23:24.388Z,20.10
2023-05-12T14:25:54.635Z,20.06
2023-05-12T14:28:24.942Z,20.18
2023-05-12T14:30:57.514Z,20.22
2023-05-12T14:33:27.416Z,20.30
2023-05-12T14:36:07.158Z,20.25
2023-05-12T14:38:38.124Z,20.26
2023-05-12T14:41:08.677Z,20.15
2023-05-12T14:43:38.657Z,20.13
2023-05-12T14:46:09.005Z,20.19
2023-05-12T14:48:38.808Z,20.19
2023-05-12T14:51:11.226Z,20.12
2023-05-12T14:53:41.119Z,19.98
2023-05-12T14:56:17.529Z,20.07
2023-05-12T14:58:47.399Z,20.13
2023-05-12T15:01:17.487Z,20.12
2023-05-12T15:03:47.678Z,20.16
2023-05-12T15:06:22.447Z,20.18
2023-05-12T15:08:54.660Z,20.16
2023-05-12T15:11:24.772Z,20.25
2023-05-12T15:13:54.659Z,20.38
2023-05-12T15:16:26.392Z,20.46
2023-05-12T15:18:56.219Z,20.47
2023-05-12T15:21:28.736Z,20.28
2023-05-12T15:23:58.578Z,20.31
2023-05-12T15:26:33.653Z,20.22
2023-05-12T15:29:05.254Z,19.99
2023-05-12T15:31:37.655Z,19.95
2023-05-12T15:34:07.681Z,20.09
2023-05-12T15:36:40.124Z,19.93
2023-05-12T15:39:10.180Z,19.88
2023-05-12T15:41:40.005Z,19.89
2023-05-12T15:44:09.830Z,19.80
2023-05-12T15:46:39.715Z,19.71
2023-05-12T15:49:10.235Z,19.77
2023-05-12T15:51:42.756Z,19.75
2023-05-12T15:54:12.970Z,19.71
2023-05-12T15:56:44.831Z,19.65
2023-05-12T15:59:15.008Z,19.54
2023-05-12T16:01:44.921Z,19.46
2023-05-12T16:04:14.908Z,19.35
2023-05-12T16:06:47.792Z,19.11
2023-05-12T16:09:18.558Z,19.11
2023-05-12T16:11:49.067Z,19.09
2023-05-12T16:14:19.320Z,18.86
2023-05-12T16:16:49.694Z,18.72
2023-05-12T16:19:20.234Z,18.53
2023-05-12T16:21:53.543Z,18.54
2023-05-12T16:24:23.837Z,18.38
2023-05-12T16:26:53.753Z,18.39
2023-05-12T16:29:23.582Z,18.35
2023-05-12T16:31:53.928Z,18.27
2023-05-12T16:34:25.220Z,18.12
2023-05-12T16:36:57.646Z,18.07
2023-05-12T16:39:27.472Z,17.96
2023-05-12T16:41:57.256Z,17.92
2023-05-12T16:44:28.016Z,17.94
2023-05-12T16:46:57.861Z,17.94
2023-05-12T16:49:27.793Z,17.95
2023-05-12T16:52:00.189Z,17.89
2023-05-12T16:54:30.111Z,18.00
2023-05-12T16:57:02.099Z,18.02
2023-05-12T16:59:32.659Z,17.98
2023-05-12T17:02:02.613Z,18.04
2023-05-12T17:04:34.102Z,17.92
2023-05-12T17:07:06.658Z,17.99
2023-05-12T17:09:38.068Z,18.01
2023-05-12T17:12:08.874Z,18.06
2023-05-12T17:14:39.495Z,18.00
2023-05-12T17:17:09.448Z,18.06
2023-05-12T17:19:42.155Z,18.06
2023-05-12T17:22:14.676Z,18.08
2023-05-12T17:24:44.756Z,18.10
2023-05-12T17:27:14.606Z,18.11
2023-05-12T17:29:44.427Z,18.12
2023-05-12T17:32:14.313Z,18.19
2023-05-12T17:34:44.147Z,18.17
2023-05-12T17:37:18.906Z,18.16
2023-05-12T17:39:50.649Z,18.19
2023-05-12T17:42:20.600Z,18.17
2023-05-12T17:44:50.389Z,18.13
2023-05-12T17:47:20.314Z,18.10
2023-05-12T17:49:50.260Z,18.02
2023-05-12T17:52:22.779Z,17.95
2023-05-12T17:54:57.397Z,17.79
2023-05-12T17:57:27.442Z,17.80
2023-05-12T17:59:57.226Z,17.89
2023-05-12T18:02:27.175Z,17.95
2023-05-12T18:04:57.089Z,17.90
2023-05-12T18:07:29.652Z,17.86
2023-05-12T18:10:01.048Z,17.82
2023-05-12T18:12:31.168Z,17.80
2023-05-12T18:15:01.000Z,17.78
2023-05-12T18:17:31.696Z,17.73
2023-05-12T18:20:01.813Z,17.74
2023-05-12T18:22:34.311Z,17.70
2023-05-12T18:25:04.109Z,17.70
2023-05-12T18:27:33.985Z,17.76
2023-05-12T18:30:03.884Z,17.66
2023-05-12T18:32:33.853Z,17.66
2023-05-12T18:35:07.529Z,17.70
2023-05-12T18:37:39.986Z,17.67
2023-05-12T18:40:11.502Z,17.70
2023-05-12T18:42:41.439Z,17.66
2023-05-12T18:45:12.235Z,17.67
2023-05-12T18:47:42.491Z,17.64
2023-05-12T18:50:13.652Z,17.65
2023-05-12T18:52:46.105Z,17.63
2023-05-12T18:55:16.165Z,17.61
2023-05-12T18:57:48.274Z,17.58
2023-05-12T19:00:18.728Z,17.56
2023-05-12T19:02:48.578Z,17.54
2023-05-12T19:05:18.545Z,17.52
2023-05-12T19:07:54.876Z,17.52
2023-05-12T19:10:27.815Z,17.50
2023-05-12T19:12:57.910Z,17.46
2023-05-12T19:15:28.057Z,17.43
2023-05-12T19:18:01.003Z,17.38
2023-05-12T19:20:31.106Z,17.37
2023-05-12T19:23:10.499Z,17.36
2023-05-12T19:25:44.243Z,17.24
2023-05-12T19:28:18.893Z,17.13
2023-05-12T19:30:48.840Z,17.08
2023-05-12T19:33:21.548Z,17.11
2023-05-12T19:35:55.103Z,17.07
2023-05-12T19:38:27.820Z,17.01
2023-05-12T19:41:04.310Z,16.95
2023-05-12T19:43:35.928Z,16.92
2023-05-12T19:46:08.586Z,16.87
2023-05-12T19:48:40.762Z,16.84
2023-05-12T19:51:27.948Z,16.77
2023-05-12T19:54:02.280Z,16.72
2023-05-12T19:56:38.593Z,16.70
2023-05-12T19:59:12.749Z,16.71
2023-05-12T20:01:46.077Z,16.66
2023-05-12T20:04:16.810Z,16.64
2023-05-12T20:06:47.047Z,16.59
2023-05-12T20:09:40.788Z,16.48
2023-05-12T20:12:18.144Z,16.39
2023-05-12T20:14:50.760Z,16.36
2023-05-12T20:17:23.118Z,16.30
2023-05-12T20:19:57.838Z,16.28
2023-05-12T20:22:31.608Z,16.19
2023-05-12T20:25:08.579Z,16.13
2023-05-12T20:27:43.637Z,16.12
2023-05-12T20:30:17.153Z,16.09
2023-05-12T20:32:49.117Z,16.05
2023-05-12T20:35:22.592Z,15.98
2023-05-12T20:38:00.931Z,15.83
2023-05-12T20:40:34.761Z,15.77
2023-05-12T20:43:12.105Z,15.75
2023-05-12T20:45:42.809Z,15.67
2023-05-12T20:48:12.893Z,15.67
2023-05-12T20:50:43.441Z,15.69
2023-05-12T20:53:13.595Z,15.68
2023-05-12T20:55:46.195Z,15.65
2023-05-12T20:58:16.290Z,15.59
2023-05-12T21:00:46.171Z,15.55
2023-05-12T21:03:17.374Z,15.50
2023-05-12T21:05:50.317Z,15.45
2023-05-12T21:08:22.838Z,15.36
2023-05-12T21:10:56.190Z,15.27
2023-05-12T21:13:26.140Z,15.17
2023-05-12T21:15:56.662Z,15.07
2023-05-12T21:18:29.912Z,15.07
2023-05-12T21:21:01.503Z,15.09
2023-05-12T21:23:33.037Z,15.10
2023-05-12T21:26:10.807Z,15.06
2023-05-12T21:28:51.529Z,14.98
2023-05-12T21:31:32.716Z,14.92
2023-05-12T21:34:04.722Z,14.92
2023-05-12T21:36:34.911Z,14.92
2023-05-12T21:39:11.182Z,14.93
2023-05-12T21:41:43.741Z,14.90
2023-05-12T21:44:13.730Z,14.87
2023-05-12T21:46:44.061Z,14.84
2023-05-12T21:49:17.911Z,14.81
2023-05-12T21:51:48.117Z,14.82
2023-05-12T21:54:19.316Z,14.78
2023-05-12T21:56:52.035Z,14.76
2023-05-12T21:59:22.861Z,14.73
2023-05-12T22:01:53.044Z,14.63
2023-05-12T22:04:23.235Z,14.57
2023-05-12T22:06:56.091Z,14.53
2023-05-12T22:09:26.409Z,14.53
2023-05-12T22:11:58.979Z,14.50
2023-05-12T22:14:28.954Z,14.52
2023-05-12T22:16:58.913Z,14.51
2023-05-12T22:19:28.857Z,14.53
2023-05-12T22:25:01.859Z,14.49
2023-05-12T22:27:34.390Z,14.48
2023-05-12T22:30:04.350Z,14.44
2023-05-12T22:32:35.891Z,14.44
2023-05-12T22:35:07.412Z,14.36
2023-05-12T22:37:43.166Z,14.32
2023-05-12T23:12:24.401Z,14.18
2023-05-12T23:14:56.918Z,14.17
2023-05-12T23:17:26.931Z,14.18
2023-05-12T23:19:57.741Z,14.18
2023-05-12T23:22:29.311Z,14.13
2023-05-12T23:25:04.084Z,14.13
2023-05-12T23:27:36.776Z,14.05
2023-05-12T23:30:07.402Z,13.98
2023-05-12T23:32:37.477Z,13.96
2023-05-12T23:35:08.701Z,13.93
2023-05-12T23:37:38.761Z,13.89
2023-05-12T23:40:12.117Z,13.82
2023-05-12T23:42:48.239Z,13.88
2023-05-12T23:45:21.798Z,13.87
2023-05-12T23:47:58.651Z,13.87
2023-05-12T23:50:37.931Z,13.85
2023-05-12T23:53:09.697Z,13.84
2023-05-12T23:55:40.987Z,13.80
2023-05-12T23:58:15.074Z,13.76
